createdAt,value
2017-02-16T00:00:13.473Z,101842
2017-02-16T00:01:13.517Z,101841
2017-02-16T00:02:14.492Z,101842
2017-02-16T00:03:14.553Z,101842
2017-02-16T00:04:14.615Z,101840
2017-02-16T00:05:13.721Z,101838
2017-02-16T00:06:14.721Z,101842
2017-02-16T00:07:14.719Z,101838
2017-02-16T00:08:14.827Z,101840
2017-02-16T00:09:14.847Z,101838
2017-02-16T00:10:14.894Z,101836
2017-02-16T00:11:14.940Z,101840
2017-02-16T00:12:14.051Z,101838
2017-02-16T00:13:14.080Z,101831
2017-02-16T00:14:15.113Z,101838
2017-02-16T00:15:14.220Z,101836
2017-02-16T00:16:14.270Z,101836
2017-02-16T00:17:15.237Z,101831
2017-02-16T00:18:14.305Z,101835
2017-02-16T00:19:15.320Z,101823
2017-02-16T00:20:15.335Z,101834
2017-02-16T00:21:15.355Z,101838
2017-02-16T00:22:15.415Z,101834
2017-02-16T00:23:14.508Z,101830
2017-02-16T00:24:15.477Z,101834
2017-02-16T00:25:15.531Z,101832
2017-02-16T00:26:15.619Z,101834
2017-02-16T00:27:14.677Z,101824
2017-02-16T00:28:14.763Z,101831
2017-02-16T00:29:14.848Z,101832
2017-02-16T00:30:15.808Z,101828
2017-02-16T00:31:14.941Z,101832
2017-02-16T00:32:15.964Z,101831
2017-02-16T00:33:15.068Z,101831
2017-02-16T00:34:15.157Z,101823
2017-02-16T00:35:15.228Z,101820
2017-02-16T00:36:16.263Z,101827
2017-02-16T00:37:16.322Z,101825
2017-02-16T00:38:15.366Z,101829
2017-02-16T00:39:15.408Z,101825
2017-02-16T00:40:16.469Z,101825
2017-02-16T00:41:15.558Z,101816
2017-02-16T00:42:15.601Z,101824
2017-02-16T00:43:15.669Z,101823
2017-02-16T00:44:16.637Z,101825
2017-02-16T00:45:15.731Z,101826
2017-02-16T00:46:15.765Z,101823
2017-02-16T00:47:16.742Z,101824
2017-02-16T00:48:15.874Z,101828
2017-02-16T00:49:16.940Z,101828
2017-02-16T00:50:16.958Z,101827
2017-02-16T00:51:16.024Z,101830
2017-02-16T00:52:16.091Z,101830
2017-02-16T00:53:17.065Z,101835
2017-02-16T00:54:17.084Z,101836
2017-02-16T00:55:17.125Z,101833
2017-02-16T00:56:17.232Z,101831
2017-02-16T00:57:17.199Z,101833
2017-02-16T00:58:17.249Z,101834
2017-02-16T00:59:17.286Z,101835
2017-02-16T01:00:18.027Z,101839
2017-02-16T01:01:16.499Z,101839
2017-02-16T01:02:17.985Z,101832
2017-02-16T01:03:16.524Z,101841
2017-02-16T01:04:16.601Z,101841
2017-02-16T01:05:16.615Z,101841
2017-02-16T01:06:17.626Z,101839
2017-02-16T01:07:16.733Z,101835
2017-02-16T01:08:17.799Z,101846
2017-02-16T01:09:17.793Z,101844
2017-02-16T01:10:16.828Z,101845
2017-02-16T01:11:16.898Z,101843
2017-02-16T01:12:17.888Z,101847
2017-02-16T01:13:17.992Z,101847
2017-02-16T01:14:17.054Z,101845
2017-02-16T01:15:17.084Z,101850
2017-02-16T01:16:18.031Z,101847
2017-02-16T01:17:17.099Z,101847
2017-02-16T01:18:18.132Z,101849
2017-02-16T01:19:17.240Z,101850
2017-02-16T01:20:17.241Z,101852
2017-02-16T01:21:18.274Z,101856
2017-02-16T01:22:18.315Z,101852
2017-02-16T01:23:18.369Z,101857
2017-02-16T01:24:17.439Z,101852
2017-02-16T01:25:18.474Z,101857
2017-02-16T01:26:18.550Z,101858
2017-02-16T01:27:18.588Z,101857
2017-02-16T01:28:17.633Z,101858
2017-02-16T01:29:17.673Z,101859
2017-02-16T01:30:18.701Z,101852
2017-02-16T01:31:18.771Z,101856
2017-02-16T01:32:18.874Z,101856
2017-02-16T01:33:18.903Z,101858
2017-02-16T01:34:17.999Z,101860
2017-02-16T01:35:18.018Z,101860
2017-02-16T01:36:18.053Z,101860
2017-02-16T01:37:18.166Z,101863
2017-02-16T01:38:18.872Z,101854
2017-02-16T01:39:19.891Z,101864
2017-02-16T01:40:18.322Z,101865
2017-02-16T01:41:19.332Z,101863
2017-02-16T01:42:19.401Z,101865
2017-02-16T01:43:19.499Z,101860
2017-02-16T01:44:18.535Z,101866
2017-02-16T01:45:19.576Z,101862
2017-02-16T01:46:19.587Z,101865
2017-02-16T01:47:18.701Z,101857
2017-02-16T01:48:19.729Z,101865
2017-02-16T01:49:18.831Z,101859
2017-02-16T01:50:19.845Z,101861
2017-02-16T01:51:18.954Z,101861
2017-02-16T01:52:20.021Z,101858
2017-02-16T01:53:20.068Z,101859
2017-02-16T01:54:19.109Z,101853
2017-02-16T01:55:19.158Z,101858
2017-02-16T01:56:19.227Z,101858
2017-02-16T01:57:20.209Z,101862
2017-02-16T01:58:20.283Z,101855
2017-02-16T01:59:20.324Z,101863
2017-02-16T02:00:19.391Z,101859
2017-02-16T02:01:19.481Z,101858
2017-02-16T02:02:19.514Z,101854
2017-02-16T02:03:20.495Z,101853
2017-02-16T02:04:19.558Z,101855
2017-02-16T02:05:20.621Z,101855
2017-02-16T02:06:19.667Z,101853
2017-02-16T02:07:20.748Z,101852
2017-02-16T02:08:19.785Z,101852
2017-02-16T02:09:19.821Z,101851
2017-02-16T02:10:19.831Z,101853
2017-02-16T02:11:20.818Z,101849
2017-02-16T02:12:20.843Z,101849
2017-02-16T02:13:20.204Z,101849
2017-02-16T02:14:20.986Z,101849
2017-02-16T02:15:21.032Z,101844
2017-02-16T02:16:21.073Z,101850
2017-02-16T02:17:21.129Z,101849
2017-02-16T02:18:21.272Z,101848
2017-02-16T02:19:20.452Z,101848
2017-02-16T02:20:21.336Z,101852
2017-02-16T02:21:20.405Z,101849
2017-02-16T02:22:21.431Z,101846
2017-02-16T02:23:20.512Z,101849
2017-02-16T02:24:20.578Z,101839
2017-02-16T02:25:21.929Z,101839
2017-02-16T02:26:20.736Z,101848
2017-02-16T02:27:20.771Z,101846
2017-02-16T02:28:20.873Z,101843
2017-02-16T02:29:21.021Z,101846
2017-02-16T02:30:22.145Z,101837
2017-02-16T02:31:21.031Z,101841
2017-02-16T02:32:22.059Z,101842
2017-02-16T02:33:22.080Z,101844
2017-02-16T02:34:22.197Z,101833
2017-02-16T02:35:21.336Z,101837
2017-02-16T02:36:22.616Z,101838
2017-02-16T02:37:21.340Z,101837
2017-02-16T02:38:21.963Z,101838
2017-02-16T02:39:21.464Z,101829
2017-02-16T02:40:22.425Z,101837
2017-02-16T02:41:21.535Z,101835
2017-02-16T02:42:22.654Z,101831
2017-02-16T02:43:21.557Z,101837
2017-02-16T02:44:22.501Z,101837
2017-02-16T02:45:22.521Z,101831
2017-02-16T02:46:21.633Z,101831
2017-02-16T02:47:22.130Z,101832
2017-02-16T02:48:22.790Z,101833
2017-02-16T02:49:21.680Z,101832
2017-02-16T02:50:22.746Z,101836
2017-02-16T02:51:21.850Z,101832
2017-02-16T02:52:22.840Z,101829
2017-02-16T02:53:21.903Z,101827
2017-02-16T02:54:23.074Z,101827
2017-02-16T02:55:21.970Z,101818
2017-02-16T02:56:22.935Z,101823
2017-02-16T02:57:23.785Z,101827
2017-02-16T02:58:23.067Z,101829
2017-02-16T02:59:22.200Z,101816
2017-02-16T03:00:22.388Z,101827
2017-02-16T03:01:22.300Z,101823
2017-02-16T03:02:23.359Z,101825
2017-02-16T03:03:23.356Z,101818
2017-02-16T03:04:22.498Z,101821
2017-02-16T03:05:22.509Z,101822
2017-02-16T03:06:23.635Z,101819
2017-02-16T03:07:22.595Z,101817
2017-02-16T03:08:22.621Z,101814
2017-02-16T03:09:23.674Z,101816
2017-02-16T03:10:23.740Z,101822
2017-02-16T03:11:23.739Z,101817
2017-02-16T03:12:22.964Z,101821
2017-02-16T03:13:22.887Z,101820
2017-02-16T03:14:22.986Z,101818
2017-02-16T03:15:22.985Z,101817
2017-02-16T03:16:24.085Z,101818
2017-02-16T03:17:23.140Z,101814
2017-02-16T03:18:23.171Z,101814
2017-02-16T03:19:23.201Z,101814
2017-02-16T03:20:24.191Z,101809
2017-02-16T03:21:23.300Z,101818
2017-02-16T03:22:24.347Z,101806
2017-02-16T03:23:24.407Z,101817
2017-02-16T03:24:24.428Z,101817
2017-02-16T03:25:23.515Z,101822
2017-02-16T03:26:23.612Z,101824
2017-02-16T03:27:24.567Z,101821
2017-02-16T03:28:23.653Z,101830
2017-02-16T03:29:23.730Z,101831
2017-02-16T03:30:23.815Z,101827
2017-02-16T03:31:23.917Z,101826
2017-02-16T03:32:23.915Z,101828
2017-02-16T03:33:24.002Z,101825
2017-02-16T03:34:24.074Z,101825
2017-02-16T03:35:25.102Z,101823
2017-02-16T03:36:24.195Z,101821
2017-02-16T03:37:24.263Z,101822
2017-02-16T03:38:25.281Z,101817
2017-02-16T03:39:25.340Z,101813
2017-02-16T03:40:25.408Z,101816
2017-02-16T03:41:24.462Z,101816
2017-02-16T03:42:24.482Z,101812
2017-02-16T03:43:25.517Z,101818
2017-02-16T03:44:24.571Z,101818
2017-02-16T03:45:25.579Z,101818
2017-02-16T03:46:25.638Z,101823
2017-02-16T03:47:25.639Z,101820
2017-02-16T03:48:25.742Z,101825
2017-02-16T03:49:24.841Z,101827
2017-02-16T03:50:25.831Z,101823
2017-02-16T03:51:24.910Z,101822
2017-02-16T03:52:25.004Z,101819
2017-02-16T03:53:25.050Z,101825
2017-02-16T03:54:26.021Z,101828
2017-02-16T03:55:25.048Z,101822
2017-02-16T03:56:26.069Z,101824
2017-02-16T03:57:26.099Z,101824
2017-02-16T03:58:25.202Z,101824
2017-02-16T03:59:25.222Z,101822
2017-02-16T04:00:25.211Z,101820
2017-02-16T04:01:26.259Z,101817
2017-02-16T04:02:26.348Z,101815
2017-02-16T04:03:26.478Z,101814
2017-02-16T04:04:25.562Z,101814
2017-02-16T04:05:25.650Z,101808
2017-02-16T04:06:26.715Z,101809
2017-02-16T04:07:25.786Z,101814
2017-02-16T04:08:25.873Z,101822
2017-02-16T04:09:26.873Z,101822
2017-02-16T04:10:26.918Z,101826
2017-02-16T04:11:26.001Z,101822
2017-02-16T04:12:26.069Z,101818
2017-02-16T04:13:26.113Z,101817
2017-02-16T04:14:27.100Z,101821
2017-02-16T04:15:26.174Z,101823
2017-02-16T04:16:26.231Z,101815
2017-02-16T04:17:27.246Z,101821
2017-02-16T04:18:26.330Z,101817
2017-02-16T04:19:26.397Z,101811
2017-02-16T04:20:27.410Z,101807
2017-02-16T04:21:26.461Z,101817
2017-02-16T04:22:26.525Z,101819
2017-02-16T04:23:26.608Z,101815
2017-02-16T04:24:26.673Z,101817
2017-02-16T04:25:26.740Z,101809
2017-02-16T04:26:27.726Z,101811
2017-02-16T04:27:26.855Z,101808
2017-02-16T04:28:27.831Z,101812
2017-02-16T04:29:26.929Z,101803
2017-02-16T04:30:27.935Z,101814
2017-02-16T04:31:27.016Z,101809
2017-02-16T04:32:27.116Z,101813
2017-02-16T04:33:27.128Z,101809
2017-02-16T04:34:27.146Z,101811
2017-02-16T04:35:28.188Z,101806
2017-02-16T04:36:27.253Z,101809
2017-02-16T04:37:27.354Z,101810
2017-02-16T04:38:28.347Z,101805
2017-02-16T04:39:28.411Z,101802
2017-02-16T04:40:28.463Z,101802
2017-02-16T04:41:28.486Z,101798
2017-02-16T04:42:28.540Z,101797
2017-02-16T04:43:27.640Z,101797
2017-02-16T04:44:28.614Z,101793
2017-02-16T04:45:27.690Z,101799
2017-02-16T04:46:27.694Z,101789
2017-02-16T04:47:28.670Z,101798
2017-02-16T04:48:28.753Z,101798
2017-02-16T04:49:27.807Z,101799
2017-02-16T04:50:28.808Z,101801
2017-02-16T04:51:27.880Z,101800
2017-02-16T04:52:27.937Z,101798
2017-02-16T04:53:28.897Z,101793
2017-02-16T04:54:28.047Z,101793
2017-02-16T04:55:29.102Z,101787
2017-02-16T04:56:28.187Z,101780
2017-02-16T04:57:29.220Z,101782
2017-02-16T04:58:28.255Z,101783
2017-02-16T04:59:29.309Z,101784
2017-02-16T05:00:29.392Z,101779
2017-02-16T05:01:28.453Z,101788
2017-02-16T05:02:28.517Z,101789
2017-02-16T05:03:28.586Z,101788
2017-02-16T05:04:29.633Z,101790
2017-02-16T05:05:29.684Z,101790
2017-02-16T05:06:28.783Z,101794
2017-02-16T05:07:29.788Z,101799
2017-02-16T05:08:29.809Z,101798
2017-02-16T05:09:29.888Z,101795
2017-02-16T05:10:29.956Z,101796
2017-02-16T05:11:29.072Z,101800
2017-02-16T05:12:30.056Z,101798
2017-02-16T05:13:29.116Z,101800
2017-02-16T05:14:30.150Z,101796
2017-02-16T05:15:30.191Z,101798
2017-02-16T05:16:29.279Z,101800
2017-02-16T05:17:30.298Z,101804
2017-02-16T05:18:29.369Z,101806
2017-02-16T05:19:29.446Z,101795
2017-02-16T05:20:29.477Z,101805
2017-02-16T05:21:30.516Z,101807
2017-02-16T05:22:30.569Z,101804
2017-02-16T05:23:29.628Z,101804
2017-02-16T05:24:30.649Z,101803
2017-02-16T05:25:29.733Z,101801
2017-02-16T05:26:30.715Z,101803
2017-02-16T05:27:29.793Z,101804
2017-02-16T05:28:29.784Z,101795
2017-02-16T05:29:29.911Z,101802
2017-02-16T05:30:29.946Z,101796
2017-02-16T05:31:30.037Z,101797
2017-02-16T05:32:30.080Z,101793
2017-02-16T05:33:30.173Z,101788
2017-02-16T05:34:30.203Z,101792
2017-02-16T05:35:31.218Z,101795
2017-02-16T05:36:30.342Z,101795
2017-02-16T05:37:30.401Z,101790
2017-02-16T05:38:31.443Z,101797
2017-02-16T05:39:31.460Z,101799
2017-02-16T05:40:31.500Z,101801
2017-02-16T05:41:31.564Z,101798
2017-02-16T05:42:31.634Z,101799
2017-02-16T05:43:31.730Z,101796
2017-02-16T05:44:31.769Z,101794
2017-02-16T05:45:30.918Z,101796
2017-02-16T05:46:30.978Z,101792
2017-02-16T05:47:31.010Z,101791
2017-02-16T05:48:32.024Z,101782
2017-02-16T05:49:31.096Z,101793
2017-02-16T05:50:32.172Z,101786
2017-02-16T05:51:32.269Z,101784
2017-02-16T05:52:32.338Z,101782
2017-02-16T05:53:32.440Z,101789
2017-02-16T05:54:31.503Z,101788
2017-02-16T05:55:31.518Z,101782
2017-02-16T05:56:31.583Z,101786
2017-02-16T05:57:31.647Z,101786
2017-02-16T05:58:31.676Z,101789
2017-02-16T05:59:31.697Z,101787
2017-02-16T06:00:31.802Z,101785
2017-02-16T06:01:31.836Z,101788
2017-02-16T06:02:32.837Z,101787
2017-02-16T06:03:32.861Z,101780
2017-02-16T06:04:32.914Z,101784
2017-02-16T06:05:32.019Z,101778
2017-02-16T06:06:32.032Z,101781
2017-02-16T06:07:32.093Z,101781
2017-02-16T06:08:32.100Z,101774
2017-02-16T06:09:32.142Z,101782
2017-02-16T06:10:33.134Z,101780
2017-02-16T06:11:33.160Z,101780
2017-02-16T06:12:32.286Z,101774
2017-02-16T06:13:33.286Z,101774
2017-02-16T06:14:32.332Z,101781
2017-02-16T06:15:32.403Z,101781
2017-02-16T06:16:32.507Z,101781
2017-02-16T06:17:32.867Z,101781
2017-02-16T06:18:32.982Z,101774
2017-02-16T06:19:33.770Z,101781
2017-02-16T06:20:33.319Z,101783
2017-02-16T06:21:34.331Z,101783
2017-02-16T06:22:33.716Z,101773
2017-02-16T06:23:33.311Z,101777
2017-02-16T06:24:33.782Z,101784
2017-02-16T06:25:34.921Z,101783
2017-02-16T06:26:34.210Z,101779
2017-02-16T06:27:34.209Z,101783
2017-02-16T06:28:34.862Z,101780
2017-02-16T06:29:34.883Z,101784
2017-02-16T06:30:34.687Z,101771
2017-02-16T06:31:34.652Z,101777
2017-02-16T06:32:34.062Z,101784
2017-02-16T06:33:33.848Z,101777
2017-02-16T06:34:34.922Z,101782
2017-02-16T06:35:34.867Z,101784
2017-02-16T06:36:34.570Z,101789
2017-02-16T06:37:34.066Z,101787
2017-02-16T06:38:34.471Z,101781
2017-02-16T06:39:34.534Z,101787
2017-02-16T06:40:33.578Z,101789
2017-02-16T06:41:33.639Z,101792
2017-02-16T06:42:33.732Z,101783
2017-02-16T06:43:34.783Z,101789
2017-02-16T06:44:34.996Z,101786
2017-02-16T06:45:34.870Z,101787
2017-02-16T06:46:34.948Z,101789
2017-02-16T06:47:34.967Z,101794
2017-02-16T06:48:34.035Z,101792
2017-02-16T06:49:35.009Z,101794
2017-02-16T06:50:34.118Z,101791
2017-02-16T06:51:35.040Z,101799
2017-02-16T06:52:35.066Z,101802
2017-02-16T06:53:34.137Z,101803
2017-02-16T06:54:34.213Z,101799
2017-02-16T06:55:34.247Z,101799
2017-02-16T06:56:35.272Z,101806
2017-02-16T06:57:34.344Z,101800
2017-02-16T06:58:35.055Z,101791
2017-02-16T06:59:34.476Z,101802
2017-02-16T07:00:35.507Z,101804
2017-02-16T07:01:34.583Z,101809
2017-02-16T07:02:35.624Z,101810
2017-02-16T07:03:35.669Z,101814
2017-02-16T07:04:35.786Z,101811
2017-02-16T07:05:35.895Z,101810
2017-02-16T07:06:35.925Z,101796
2017-02-16T07:07:35.943Z,101809
2017-02-16T07:08:36.035Z,101803
2017-02-16T07:09:36.159Z,101806
2017-02-16T07:10:36.109Z,101805
2017-02-16T07:11:35.192Z,101804
2017-02-16T07:12:35.879Z,101805
2017-02-16T07:13:36.198Z,101803
2017-02-16T07:14:36.262Z,101803
2017-02-16T07:15:36.385Z,101807
2017-02-16T07:16:36.418Z,101813
2017-02-16T07:17:36.539Z,101807
2017-02-16T07:18:36.547Z,101812
2017-02-16T07:19:36.593Z,101815
2017-02-16T07:20:35.652Z,101813
2017-02-16T07:21:35.730Z,101812
2017-02-16T07:22:36.801Z,101811
2017-02-16T07:23:35.919Z,101811
2017-02-16T07:24:35.945Z,101813
2017-02-16T07:25:37.595Z,101810
2017-02-16T07:26:36.034Z,101810
2017-02-16T07:27:37.121Z,101816
2017-02-16T07:28:36.130Z,101802
2017-02-16T07:29:36.152Z,101815
2017-02-16T07:30:36.203Z,101814
2017-02-16T07:31:37.236Z,101815
2017-02-16T07:32:37.298Z,101814
2017-02-16T07:33:36.409Z,101818
2017-02-16T07:34:36.415Z,101818
2017-02-16T07:35:36.538Z,101812
2017-02-16T07:36:36.633Z,101819
2017-02-16T07:37:37.656Z,101819
2017-02-16T07:38:37.658Z,101820
2017-02-16T07:39:36.788Z,101814
2017-02-16T07:40:36.812Z,101818
2017-02-16T07:41:36.888Z,101815
2017-02-16T07:42:37.876Z,101816
2017-02-16T07:43:37.033Z,101818
2017-02-16T07:44:38.064Z,101813
2017-02-16T07:45:38.102Z,101818
2017-02-16T07:46:38.485Z,101815
2017-02-16T07:47:38.922Z,101818
2017-02-16T07:48:38.339Z,101813
2017-02-16T07:49:37.355Z,101811
2017-02-16T07:50:37.446Z,101812
2017-02-16T07:51:37.805Z,101814
2017-02-16T07:52:38.475Z,101811
2017-02-16T07:53:38.572Z,101809
2017-02-16T07:54:38.567Z,101814
2017-02-16T07:55:38.605Z,101808
2017-02-16T07:56:38.620Z,101806
2017-02-16T07:57:37.890Z,101809
2017-02-16T07:58:37.815Z,101809
2017-02-16T07:59:37.845Z,101806
2017-02-16T08:00:38.861Z,101807
2017-02-16T08:01:37.856Z,101805
2017-02-16T08:02:37.944Z,101804
2017-02-16T08:03:38.936Z,101801
2017-02-16T08:04:38.034Z,101803
2017-02-16T08:05:38.108Z,101801
2017-02-16T08:06:39.142Z,101797
2017-02-16T08:07:38.253Z,101797
2017-02-16T08:08:38.254Z,101796
2017-02-16T08:09:39.259Z,101795
2017-02-16T08:10:38.360Z,101796
2017-02-16T08:11:38.359Z,101798
2017-02-16T08:12:38.407Z,101785
2017-02-16T08:13:38.451Z,101801
2017-02-16T08:14:38.527Z,101792
2017-02-16T08:15:38.529Z,101782
2017-02-16T08:16:39.575Z,101782
2017-02-16T08:17:39.695Z,101791
2017-02-16T08:18:40.401Z,101790
2017-02-16T08:19:38.809Z,101789
2017-02-16T08:20:39.633Z,101785
2017-02-16T08:21:40.421Z,101783
2017-02-16T08:22:38.850Z,101786
2017-02-16T08:23:39.888Z,101785
2017-02-16T08:24:39.015Z,101783
2017-02-16T08:25:40.055Z,101786
2017-02-16T08:26:40.129Z,101784
2017-02-16T08:27:40.221Z,101784
2017-02-16T08:28:39.304Z,101786
2017-02-16T08:29:40.286Z,101788
2017-02-16T08:30:39.342Z,101785
2017-02-16T08:31:40.310Z,101785
2017-02-16T08:32:39.398Z,101775
2017-02-16T08:33:39.469Z,101786
2017-02-16T08:34:39.483Z,101782
2017-02-16T08:35:40.474Z,101783
2017-02-16T08:36:39.597Z,101784
2017-02-16T08:37:40.631Z,101785
2017-02-16T08:38:39.713Z,101781
2017-02-16T08:39:40.649Z,101782
2017-02-16T08:40:40.754Z,101782
2017-02-16T08:41:40.750Z,101782
2017-02-16T08:42:39.857Z,101781
2017-02-16T08:43:40.811Z,101784
2017-02-16T08:44:39.977Z,101780
2017-02-16T08:45:40.984Z,101770
2017-02-16T08:46:40.115Z,101776
2017-02-16T08:47:41.109Z,101778
2017-02-16T08:48:40.226Z,101773
2017-02-16T08:49:40.250Z,101777
2017-02-16T08:50:41.310Z,101775
2017-02-16T08:51:41.376Z,101774
2017-02-16T08:52:40.426Z,101765
2017-02-16T08:53:41.389Z,101775
2017-02-16T08:54:41.433Z,101772
2017-02-16T08:55:41.428Z,101769
2017-02-16T08:56:40.583Z,101775
2017-02-16T08:57:40.617Z,101771
2017-02-16T08:58:40.624Z,101770
2017-02-16T08:59:40.691Z,101768
2017-02-16T09:00:41.731Z,101766
2017-02-16T09:01:42.362Z,101769
2017-02-16T09:02:41.813Z,101758
2017-02-16T09:03:41.855Z,101767
2017-02-16T09:04:41.037Z,101773
2017-02-16T09:05:42.060Z,101774
2017-02-16T09:06:42.096Z,101770
2017-02-16T09:07:42.094Z,101766
2017-02-16T09:08:42.202Z,101764
2017-02-16T09:09:41.218Z,101776
2017-02-16T09:10:41.964Z,101774
2017-02-16T09:11:42.282Z,101771
2017-02-16T09:12:42.231Z,101766
2017-02-16T09:13:42.337Z,101775
2017-02-16T09:14:41.373Z,101768
2017-02-16T09:15:41.446Z,101767
2017-02-16T09:16:42.450Z,101767
2017-02-16T09:17:42.456Z,101772
2017-02-16T09:18:42.514Z,101771
2017-02-16T09:19:42.582Z,101770
2017-02-16T09:20:41.673Z,101774
2017-02-16T09:21:42.626Z,101770
2017-02-16T09:22:41.771Z,101762
2017-02-16T09:23:42.784Z,101759
2017-02-16T09:24:41.900Z,101770
2017-02-16T09:25:42.928Z,101769
2017-02-16T09:26:43.414Z,101769
2017-02-16T09:27:42.973Z,101767
2017-02-16T09:28:42.046Z,101766
2017-02-16T09:29:43.034Z,101764
2017-02-16T09:30:43.157Z,101767
2017-02-16T09:31:43.133Z,101766
2017-02-16T09:32:43.267Z,101764
2017-02-16T09:33:42.951Z,101762
2017-02-16T09:34:42.415Z,101757
2017-02-16T09:35:42.393Z,101767
2017-02-16T09:36:44.110Z,101764
2017-02-16T09:37:43.048Z,101759
2017-02-16T09:38:42.485Z,101760
2017-02-16T09:39:43.526Z,101751
2017-02-16T09:40:42.572Z,101756
2017-02-16T09:41:42.642Z,101759
2017-02-16T09:42:43.704Z,101756
2017-02-16T09:43:43.762Z,101753
2017-02-16T09:44:42.813Z,101753
2017-02-16T09:45:43.874Z,101747
2017-02-16T09:46:42.937Z,101751
2017-02-16T09:47:42.968Z,101752
2017-02-16T09:48:43.012Z,101755
2017-02-16T09:49:44.304Z,101753
2017-02-16T09:50:43.613Z,101753
2017-02-16T09:51:44.039Z,101755
2017-02-16T09:52:43.146Z,101754
2017-02-16T09:53:43.881Z,101749
2017-02-16T09:54:43.330Z,101746
2017-02-16T09:55:44.291Z,101748
2017-02-16T09:56:44.327Z,101746
2017-02-16T09:57:43.431Z,101745
2017-02-16T09:58:43.473Z,101746
2017-02-16T09:59:43.522Z,101745
2017-02-16T10:00:43.514Z,101736
2017-02-16T10:01:43.585Z,101738
2017-02-16T10:02:43.651Z,101748
2017-02-16T10:03:44.635Z,101744
2017-02-16T10:04:44.656Z,101747
2017-02-16T10:05:43.801Z,101744
2017-02-16T10:06:44.769Z,101746
2017-02-16T10:07:43.884Z,101742
2017-02-16T10:08:45.027Z,101737
2017-02-16T10:09:44.932Z,101743
2017-02-16T10:10:44.986Z,101748
2017-02-16T10:11:45.073Z,101736
2017-02-16T10:12:45.080Z,101736
2017-02-16T10:13:44.237Z,101741
2017-02-16T10:14:44.825Z,101732
2017-02-16T10:15:45.258Z,101729
2017-02-16T10:16:44.408Z,101739
2017-02-16T10:17:44.391Z,101734
2017-02-16T10:18:45.376Z,101736
2017-02-16T10:19:44.840Z,101740
2017-02-16T10:20:44.543Z,101731
2017-02-16T10:21:45.566Z,101729
2017-02-16T10:23:12.668Z,101730
2017-02-16T10:24:12.716Z,101729
2017-02-16T10:25:12.798Z,101720
2017-02-16T10:26:12.871Z,101731
2017-02-16T10:27:12.928Z,101735
2017-02-16T10:28:12.994Z,101729
2017-02-16T10:29:13.031Z,101730
2017-02-16T10:30:12.102Z,101725
2017-02-16T10:31:12.151Z,101727
2017-02-16T10:32:13.205Z,101730
2017-02-16T10:33:13.316Z,101729
2017-02-16T10:34:13.332Z,101729
2017-02-16T10:35:13.351Z,101734
2017-02-16T10:36:12.428Z,101722
2017-02-16T10:37:13.453Z,101725
2017-02-16T10:38:13.495Z,101724
2017-02-16T10:39:12.539Z,101725
2017-02-16T10:40:13.578Z,101719
2017-02-16T10:41:13.428Z,101725
2017-02-16T10:42:13.708Z,101729
2017-02-16T10:43:13.792Z,101725
2017-02-16T10:44:13.798Z,101721
2017-02-16T10:45:14.401Z,101720
2017-02-16T10:46:14.529Z,101721
2017-02-16T10:47:14.536Z,101730
2017-02-16T10:48:13.983Z,101720
2017-02-16T10:49:14.064Z,101724
2017-02-16T10:50:13.176Z,101717
2017-02-16T10:51:13.275Z,101720
2017-02-16T10:52:13.285Z,101719
2017-02-16T10:53:13.293Z,101713
2017-02-16T10:54:14.320Z,101719
2017-02-16T10:55:14.325Z,101710
2017-02-16T10:56:13.443Z,101714
2017-02-16T10:57:15.426Z,101712
2017-02-16T10:58:14.414Z,101709
2017-02-16T10:59:13.543Z,101699
2017-02-16T11:00:13.563Z,101710
2017-02-16T11:01:13.610Z,101707
2017-02-16T11:02:13.681Z,101703
2017-02-16T11:03:14.688Z,101704
2017-02-16T11:04:13.734Z,101705
2017-02-16T11:05:14.741Z,101703
2017-02-16T11:06:13.803Z,101700
2017-02-16T11:07:14.799Z,101701
2017-02-16T11:08:14.861Z,101692
2017-02-16T11:09:14.848Z,101683
2017-02-16T11:10:13.897Z,101692
2017-02-16T11:11:13.949Z,101692
2017-02-16T11:12:14.919Z,101686
2017-02-16T11:13:14.980Z,101680
2017-02-16T11:14:14.674Z,101689
2017-02-16T11:15:14.052Z,101683
2017-02-16T11:16:15.073Z,101685
2017-02-16T11:17:15.127Z,101685
2017-02-16T11:18:15.127Z,101680
2017-02-16T11:19:14.168Z,101678
2017-02-16T11:20:15.166Z,101673
2017-02-16T11:21:15.165Z,101678
2017-02-16T11:22:15.186Z,101677
2017-02-16T11:23:14.303Z,101677
2017-02-16T11:24:14.357Z,101674
2017-02-16T11:25:14.382Z,101671
2017-02-16T11:26:14.421Z,101667
2017-02-16T11:27:14.476Z,101673
2017-02-16T11:28:14.531Z,101671
2017-02-16T11:29:14.547Z,101669
2017-02-16T11:30:14.626Z,101669
2017-02-16T11:31:14.679Z,101667
2017-02-16T11:32:14.736Z,101665
2017-02-16T11:33:15.783Z,101665
2017-02-16T11:34:15.822Z,101662
2017-02-16T11:35:15.857Z,101654
2017-02-16T11:36:14.961Z,101656
2017-02-16T11:37:16.115Z,101658
2017-02-16T11:38:16.021Z,101655
2017-02-16T11:39:15.131Z,101655
2017-02-16T11:40:16.106Z,101645
2017-02-16T11:41:15.184Z,101651
2017-02-16T11:42:16.196Z,101641
2017-02-16T11:43:15.518Z,101642
2017-02-16T11:44:15.383Z,101643
2017-02-16T11:45:16.160Z,101639
2017-02-16T11:46:16.466Z,101641
2017-02-16T11:47:16.141Z,101638
2017-02-16T11:48:16.627Z,101640
2017-02-16T11:49:16.921Z,101633
2017-02-16T11:50:16.729Z,101631
2017-02-16T11:51:15.781Z,101631
2017-02-16T11:52:15.870Z,101623
2017-02-16T11:53:15.938Z,101587
2017-02-16T11:54:16.909Z,101625
2017-02-16T11:55:17.181Z,101629
2017-02-16T11:56:16.094Z,101627
2017-02-16T11:57:17.030Z,101627
2017-02-16T11:58:17.092Z,101630
2017-02-16T11:59:16.203Z,101629
2017-02-16T12:00:16.226Z,101627
2017-02-16T12:01:17.474Z,101620
2017-02-16T12:02:16.327Z,101628
2017-02-16T12:03:16.336Z,101624
2017-02-16T12:04:17.328Z,101633
2017-02-16T12:05:16.425Z,101628
2017-02-16T12:06:17.437Z,101616
2017-02-16T12:07:16.675Z,101619
2017-02-16T12:08:16.587Z,101620
2017-02-16T12:09:16.603Z,101615
2017-02-16T12:10:16.587Z,101621
2017-02-16T12:11:17.635Z,101618
2017-02-16T12:12:16.732Z,101618
2017-02-16T12:13:17.878Z,101611
2017-02-16T12:14:17.696Z,101617
2017-02-16T12:15:17.788Z,101612
2017-02-16T12:16:17.880Z,101618
2017-02-16T12:17:16.997Z,101616
2017-02-16T12:18:18.185Z,101613
2017-02-16T12:19:17.133Z,101613
2017-02-16T12:20:18.196Z,101613
2017-02-16T12:21:18.227Z,101614
2017-02-16T12:22:18.244Z,101607
2017-02-16T12:23:18.951Z,101608
2017-02-16T12:24:18.517Z,101600
2017-02-16T12:25:17.458Z,101608
2017-02-16T12:26:17.516Z,101607
2017-02-16T12:27:18.244Z,101600
2017-02-16T12:28:17.635Z,101605
2017-02-16T12:29:17.663Z,101599